Somerton, Arizona
Current Conditions -  °F | °C
As of 12:57 AM on Tuesday 21 Oct 2014 (Local Time) from KNYL Reporting Station
Clear Clear  
Wind Chill: 77°   Ceiling: Unl
Heat Index: 79°   Visibility: 10mi
Dew Point: 62°   Wind: 0mph
Humidity: 60%   Direction: NA
Pressure: 29.8"   Gusts: NA
Location:  32.6°N, 114.71°W
Report Text: KNYL 210757Z 00000KT 10SM CLR 25/17 A2980 RMK AO2 SLP087 T02500167
Loading
Personal Weather Stations






























Interactive Weather Map
Tropical Storm Tracking
New forecast layout! Learn more

10-Day Weather Forecast

Advertisements
Track Severe Weather on mobile